sensor_id;sensor_type;location;lat;lon;timestamp;P1;durP1;ratioP1;P2;durP2;ratioP2
3777;SDS011;1904;50.076;8.660;2023-06-10T00:00:26;13.70;;;9.20;;
3777;SDS011;1904;50.076;8.660;2023-06-10T00:02:52;13.37;;;9.17;;
3777;SDS011;1904;50.076;8.660;2023-06-10T00:05:24;12.67;;;10.07;;
3777;SDS011;1904;50.076;8.660;2023-06-10T00:07:54;10.17;;;9.13;;
3777;SDS011;1904;50.076;8.660;2023-06-10T00:10:20;17.40;;;10.20;;
3777;SDS011;1904;50.076;8.660;2023-06-10T00:12:46;15.40;;;10.67;;
3777;SDS011;1904;50.076;8.660;2023-06-10T00:15:11;22.13;;;11.07;;
3777;SDS011;1904;50.076;8.660;2023-06-10T00:17:42;16.80;;;10.83;;
3777;SDS011;1904;50.076;8.660;2023-06-10T00:20:12;27.93;;;10.93;;
3777;SDS011;1904;50.076;8.660;2023-06-10T00:22:42;14.23;;;9.77;;
3777;SDS011;1904;50.076;8.660;2023-06-10T00:25:12;17.23;;;9.67;;
3777;SDS011;1904;50.076;8.660;2023-06-10T00:27:42;21.67;;;10.40;;
3777;SDS011;1904;50.076;8.660;2023-06-10T00:30:12;12.00;;;9.63;;
3777;SDS011;1904;50.076;8.660;2023-06-10T00:32:38;13.93;;;10.10;;
3777;SDS011;1904;50.076;8.660;2023-06-10T00:35:06;16.40;;;10.80;;
3777;SDS011;1904;50.076;8.660;2023-06-10T00:37:42;22.00;;;10.63;;
3777;SDS011;1904;50.076;8.660;2023-06-10T00:40:12;15.20;;;10.50;;
3777;SDS011;1904;50.076;8.660;2023-06-10T00:42:38;17.20;;;10.50;;
3777;SDS011;1904;50.076;8.660;2023-06-10T00:45:12;18.80;;;10.53;;
3777;SDS011;1904;50.076;8.660;2023-06-10T00:47:42;27.73;;;11.50;;
3777;SDS011;1904;50.076;8.660;2023-06-10T00:50:08;15.20;;;10.83;;
3777;SDS011;1904;50.076;8.660;2023-06-10T00:52:42;20.90;;;11.30;;
3777;SDS011;1904;50.076;8.660;2023-06-10T00:55:12;17.20;;;10.60;;
3777;SDS011;1904;50.076;8.660;2023-06-10T00:57:42;17.57;;;10.83;;
3777;SDS011;1904;50.076;8.660;2023-06-10T01:00:11;16.67;;;10.60;;
3777;SDS011;1904;50.076;8.660;2023-06-10T01:02:38;19.70;;;11.10;;
3777;SDS011;1904;50.076;8.660;2023-06-10T01:05:04;16.57;;;11.30;;
3777;SDS011;1904;50.076;8.660;2023-06-10T01:10:07;23.23;;;12.70;;
3777;SDS011;1904;50.076;8.660;2023-06-10T01:12:39;21.00;;;11.47;;
3777;SDS011;1904;50.076;8.660;2023-06-10T01:15:18;19.50;;;10.90;;
3777;SDS011;1904;50.076;8.660;2023-06-10T01:18:07;18.50;;;12.03;;
3777;SDS011;1904;50.076;8.660;2023-06-10T01:20:36;19.10;;;12.20;;
3777;SDS011;1904;50.076;8.660;2023-06-10T01:23:12;20.53;;;11.90;;
3777;SDS011;1904;50.076;8.660;2023-06-10T01:25:46;25.20;;;12.40;;
3777;SDS011;1904;50.076;8.660;2023-06-10T01:28:19;17.13;;;11.20;;
3777;SDS011;1904;50.076;8.660;2023-06-10T01:30:58;22.10;;;11.87;;
3777;SDS011;1904;50.076;8.660;2023-06-10T01:33:37;21.10;;;12.70;;
3777;SDS011;1904;50.076;8.660;2023-06-10T01:36:07;19.07;;;12.60;;
3777;SDS011;1904;50.076;8.660;2023-06-10T01:38:36;29.83;;;14.83;;
3777;SDS011;1904;50.076;8.660;2023-06-10T01:41:07;18.23;;;12.00;;
3777;SDS011;1904;50.076;8.660;2023-06-10T01:43:34;19.80;;;12.13;;
3777;SDS011;1904;50.076;8.660;2023-06-10T01:46:12;20.33;;;12.10;;
3777;SDS011;1904;50.076;8.660;2023-06-10T01:48:48;20.70;;;13.00;;
3777;SDS011;1904;50.076;8.660;2023-06-10T01:51:30;15.50;;;12.20;;
3777;SDS011;1904;50.076;8.660;2023-06-10T01:54:00;17.80;;;12.23;;
3777;SDS011;1904;50.076;8.660;2023-06-10T01:56:36;23.43;;;13.27;;
3777;SDS011;1904;50.076;8.660;2023-06-10T01:59:12;16.33;;;11.40;;
3777;SDS011;1904;50.076;8.660;2023-06-10T02:01:42;20.03;;;10.83;;
3777;SDS011;1904;50.076;8.660;2023-06-10T02:04:18;25.77;;;12.27;;
3777;SDS011;1904;50.076;8.660;2023-06-10T02:06:48;21.40;;;12.07;;
3777;SDS011;1904;50.076;8.660;2023-06-10T02:09:24;19.83;;;12.43;;
3777;SDS011;1904;50.076;8.660;2023-06-10T02:12:06;22.90;;;11.80;;
3777;SDS011;1904;50.076;8.660;2023-06-10T02:14:32;16.47;;;12.40;;
3777;SDS011;1904;50.076;8.660;2023-06-10T02:16:58;19.10;;;12.80;;
3777;SDS011;1904;50.076;8.660;2023-06-10T02:19:36;31.03;;;12.47;;
3777;SDS011;1904;50.076;8.660;2023-06-10T02:22:21;15.97;;;12.30;;
3777;SDS011;1904;50.076;8.660;2023-06-10T02:24:54;18.00;;;12.13;;
3777;SDS011;1904;50.076;8.660;2023-06-10T02:27:20;22.00;;;12.50;;
3777;SDS011;1904;50.076;8.660;2023-06-10T02:29:46;15.63;;;12.30;;
3777;SDS011;1904;50.076;8.660;2023-06-10T02:32:12;17.90;;;11.97;;
3777;SDS011;1904;50.076;8.660;2023-06-10T02:34:48;18.47;;;12.50;;
3777;SDS011;1904;50.076;8.660;2023-06-10T02:37:14;19.20;;;12.97;;
3777;SDS011;1904;50.076;8.660;2023-06-10T02:39:40;25.00;;;12.57;;
3777;SDS011;1904;50.076;8.660;2023-06-10T02:42:12;23.53;;;12.67;;
3777;SDS011;1904;50.076;8.660;2023-06-10T02:44:38;16.90;;;11.27;;
3777;SDS011;1904;50.076;8.660;2023-06-10T02:47:12;17.90;;;12.13;;
3777;SDS011;1904;50.076;8.660;2023-06-10T02:49:38;20.33;;;12.20;;
3777;SDS011;1904;50.076;8.660;2023-06-10T02:55:01;14.70;;;11.30;;
3777;SDS011;1904;50.076;8.660;2023-06-10T02:57:27;19.70;;;12.40;;
3777;SDS011;1904;50.076;8.660;2023-06-10T03:03:07;27.83;;;12.00;;
3777;SDS011;1904;50.076;8.660;2023-06-10T03:05:33;19.60;;;12.33;;
3777;SDS011;1904;50.076;8.660;2023-06-10T03:07:59;20.70;;;13.20;;
3777;SDS011;1904;50.076;8.660;2023-06-10T03:10:24;22.53;;;12.07;;
3777;SDS011;1904;50.076;8.660;2023-06-10T03:12:50;16.93;;;12.30;;
3777;SDS011;1904;50.076;8.660;2023-06-10T03:15:18;19.60;;;12.90;;
3777;SDS011;1904;50.076;8.660;2023-06-10T03:20:48;19.00;;;12.33;;
3777;SDS011;1904;50.076;8.660;2023-06-10T03:23:18;18.67;;;11.97;;
3777;SDS011;1904;50.076;8.660;2023-06-10T03:25:54;16.90;;;12.37;;
3777;SDS011;1904;50.076;8.660;2023-06-10T03:31:41;14.00;;;10.93;;
3777;SDS011;1904;50.076;8.660;2023-06-10T03:34:07;20.70;;;12.70;;
3777;SDS011;1904;50.076;8.660;2023-06-10T03:36:33;17.23;;;13.10;;
3777;SDS011;1904;50.076;8.660;2023-06-10T03:39:00;19.30;;;12.30;;
3777;SDS011;1904;50.076;8.660;2023-06-10T03:41:30;21.37;;;11.97;;
3777;SDS011;1904;50.076;8.660;2023-06-10T03:43:57;18.50;;;11.40;;
3777;SDS011;1904;50.076;8.660;2023-06-10T03:46:22;25.23;;;11.80;;
3777;SDS011;1904;50.076;8.660;2023-06-10T03:48:54;28.53;;;12.40;;
3777;SDS011;1904;50.076;8.660;2023-06-10T03:51:24;17.17;;;12.20;;
3777;SDS011;1904;50.076;8.660;2023-06-10T03:53:50;18.90;;;11.53;;
3777;SDS011;1904;50.076;8.660;2023-06-10T03:56:15;20.70;;;12.63;;
3777;SDS011;1904;50.076;8.660;2023-06-10T03:58:42;16.10;;;11.63;;
3777;SDS011;1904;50.076;8.660;2023-06-10T04:01:12;22.70;;;11.10;;
3777;SDS011;1904;50.076;8.660;2023-06-10T04:03:43;14.23;;;10.50;;
3777;SDS011;1904;50.076;8.660;2023-06-10T04:06:18;18.20;;;11.30;;
3777;SDS011;1904;50.076;8.660;2023-06-10T04:08:44;14.43;;;11.53;;
3777;SDS011;1904;50.076;8.660;2023-06-10T04:11:18;15.33;;;10.67;;
3777;SDS011;1904;50.076;8.660;2023-06-10T04:13:49;14.13;;;10.60;;
3777;SDS011;1904;50.076;8.660;2023-06-10T04:16:15;17.50;;;11.80;;
3777;SDS011;1904;50.076;8.660;2023-06-10T04:18:42;15.33;;;10.73;;
3777;SDS011;1904;50.076;8.660;2023-06-10T04:21:12;17.93;;;10.40;;
3777;SDS011;1904;50.076;8.660;2023-06-10T04:23:42;14.40;;;11.00;;
3777;SDS011;1904;50.076;8.660;2023-06-10T04:26:12;15.70;;;10.90;;
3777;SDS011;1904;50.076;8.660;2023-06-10T04:28:43;18.53;;;10.33;;
3777;SDS011;1904;50.076;8.660;2023-06-10T04:34:01;12.60;;;9.40;;
3777;SDS011;1904;50.076;8.660;2023-06-10T04:36:27;12.83;;;9.70;;
3777;SDS011;1904;50.076;8.660;2023-06-10T04:38:54;15.40;;;10.27;;
3777;SDS011;1904;50.076;8.660;2023-06-10T04:41:20;19.93;;;10.40;;
3777;SDS011;1904;50.076;8.660;2023-06-10T04:43:47;13.17;;;9.83;;
3777;SDS011;1904;50.076;8.660;2023-06-10T04:46:13;13.87;;;9.70;;
3777;SDS011;1904;50.076;8.660;2023-06-10T04:48:38;12.27;;;10.00;;
3777;SDS011;1904;50.076;8.660;2023-06-10T04:51:05;13.77;;;9.80;;
3777;SDS011;1904;50.076;8.660;2023-06-10T04:53:36;13.03;;;9.63;;
3777;SDS011;1904;50.076;8.660;2023-06-10T05:05:37;11.00;;;9.33;;
3777;SDS011;1904;50.076;8.660;2023-06-10T05:11:24;11.50;;;9.70;;
3777;SDS011;1904;50.076;8.660;2023-06-10T05:17:12;11.90;;;8.90;;
3777;SDS011;1904;50.076;8.660;2023-06-10T05:19:38;18.17;;;9.27;;
3777;SDS011;1904;50.076;8.660;2023-06-10T05:34:30;9.77;;;7.87;;
3777;SDS011;1904;50.076;8.660;2023-06-10T05:37:06;11.50;;;8.13;;
3777;SDS011;1904;50.076;8.660;2023-06-10T05:42:54;9.10;;;7.90;;
3777;SDS011;1904;50.076;8.660;2023-06-10T05:48:54;10.10;;;7.77;;
3777;SDS011;1904;50.076;8.660;2023-06-10T05:54:41;10.80;;;7.60;;
3777;SDS011;1904;50.076;8.660;2023-06-10T06:03:41;10.57;;;6.77;;
3777;SDS011;1904;50.076;8.660;2023-06-10T06:06:18;14.33;;;7.20;;
3777;SDS011;1904;50.076;8.660;2023-06-10T06:15:00;15.07;;;7.20;;
3777;SDS011;1904;50.076;8.660;2023-06-10T06:17:36;9.00;;;6.50;;
3777;SDS011;1904;50.076;8.660;2023-06-10T06:20:03;15.10;;;7.43;;
3777;SDS011;1904;50.076;8.660;2023-06-10T06:22:36;11.40;;;7.00;;
3777;SDS011;1904;50.076;8.660;2023-06-10T06:28:42;9.07;;;6.60;;
3777;SDS011;1904;50.076;8.660;2023-06-10T06:34:12;12.73;;;7.00;;
3777;SDS011;1904;50.076;8.660;2023-06-10T06:36:54;14.73;;;6.50;;
3777;SDS011;1904;50.076;8.660;2023-06-10T06:42:30;8.13;;;6.30;;
3777;SDS011;1904;50.076;8.660;2023-06-10T06:44:57;10.70;;;7.20;;
3777;SDS011;1904;50.076;8.660;2023-06-10T07:09:48;7.97;;;6.30;;
3777;SDS011;1904;50.076;8.660;2023-06-10T07:12:14;9.10;;;6.70;;
3777;SDS011;1904;50.076;8.660;2023-06-10T07:14:54;10.03;;;7.60;;
3777;SDS011;1904;50.076;8.660;2023-06-10T07:17:24;9.33;;;6.97;;
3777;SDS011;1904;50.076;8.660;2023-06-10T07:19:50;14.37;;;6.97;;
3777;SDS011;1904;50.076;8.660;2023-06-10T07:29:18;9.43;;;7.07;;
3777;SDS011;1904;50.076;8.660;2023-06-10T07:34:54;8.37;;;6.60;;
3777;SDS011;1904;50.076;8.660;2023-06-10T07:57:12;11.53;;;7.10;;
3777;SDS011;1904;50.076;8.660;2023-06-10T08:03:07;7.13;;;6.47;;
3777;SDS011;1904;50.076;8.660;2023-06-10T08:08:54;8.00;;;6.40;;
3777;SDS011;1904;50.076;8.660;2023-06-10T08:11:30;7.30;;;6.50;;
3777;SDS011;1904;50.076;8.660;2023-06-10T08:14:06;7.97;;;6.47;;
3777;SDS011;1904;50.076;8.660;2023-06-10T08:16:36;9.50;;;7.00;;
3777;SDS011;1904;50.076;8.660;2023-06-10T08:19:02;9.67;;;6.90;;
3777;SDS011;1904;50.076;8.660;2023-06-10T08:33:24;18.03;;;7.07;;
3777;SDS011;1904;50.076;8.660;2023-06-10T09:04:08;11.33;;;7.00;;
3777;SDS011;1904;50.076;8.660;2023-06-10T09:13:24;16.93;;;6.90;;
3777;SDS011;1904;50.076;8.660;2023-06-10T09:28:57;11.53;;;7.00;;
3777;SDS011;1904;50.076;8.660;2023-06-10T09:41:44;12.63;;;7.07;;
3777;SDS011;1904;50.076;8.660;2023-06-10T09:50:48;11.70;;;8.93;;
3777;SDS011;1904;50.076;8.660;2023-06-10T09:59:37;23.07;;;11.17;;
3777;SDS011;1904;50.076;8.660;2023-06-10T10:05:25;6.43;;;5.83;;
3777;SDS011;1904;50.076;8.660;2023-06-10T10:14:45;9.07;;;6.50;;
3777;SDS011;1904;50.076;8.660;2023-06-10T10:17:19;7.20;;;6.50;;
3777;SDS011;1904;50.076;8.660;2023-06-10T10:26:18;6.90;;;5.50;;
3777;SDS011;1904;50.076;8.660;2023-06-10T10:38:18;7.80;;;5.57;;
3777;SDS011;1904;50.076;8.660;2023-06-10T10:40:49;21.03;;;5.80;;
3777;SDS011;1904;50.076;8.660;2023-06-10T10:43:18;6.37;;;5.77;;
3777;SDS011;1904;50.076;8.660;2023-06-10T10:46:13;5.57;;;4.63;;
3777;SDS011;1904;50.076;8.660;2023-06-10T10:48:55;6.20;;;5.00;;
3777;SDS011;1904;50.076;8.660;2023-06-10T11:03:16;5.87;;;4.40;;
3777;SDS011;1904;50.076;8.660;2023-06-10T11:05:43;4.93;;;4.43;;
3777;SDS011;1904;50.076;8.660;2023-06-10T11:50:36;11.60;;;4.60;;
3777;SDS011;1904;50.076;8.660;2023-06-10T11:59:12;4.67;;;4.27;;
3777;SDS011;1904;50.076;8.660;2023-06-10T12:04:42;9.10;;;4.60;;
3777;SDS011;1904;50.076;8.660;2023-06-10T12:07:19;4.63;;;3.77;;
3777;SDS011;1904;50.076;8.660;2023-06-10T12:09:58;6.00;;;4.00;;
3777;SDS011;1904;50.076;8.660;2023-06-10T12:12:25;4.60;;;3.63;;
3777;SDS011;1904;50.076;8.660;2023-06-10T12:24:57;4.83;;;4.33;;
3777;SDS011;1904;50.076;8.660;2023-06-10T12:40:30;9.27;;;4.40;;
3777;SDS011;1904;50.076;8.660;2023-06-10T12:49:31;9.30;;;4.33;;
3777;SDS011;1904;50.076;8.660;2023-06-10T12:52:01;6.53;;;4.70;;
3777;SDS011;1904;50.076;8.660;2023-06-10T12:54:36;5.73;;;4.40;;
3777;SDS011;1904;50.076;8.660;2023-06-10T13:10:55;9.43;;;3.90;;
3777;SDS011;1904;50.076;8.660;2023-06-10T13:35:37;4.10;;;3.80;;
3777;SDS011;1904;50.076;8.660;2023-06-10T13:41:25;7.00;;;4.43;;
3777;SDS011;1904;50.076;8.660;2023-06-10T13:46:49;5.83;;;4.70;;
3777;SDS011;1904;50.076;8.660;2023-06-10T13:58:33;9.87;;;4.67;;
3777;SDS011;1904;50.076;8.660;2023-06-10T14:04:25;4.60;;;3.73;;
3777;SDS011;1904;50.076;8.660;2023-06-10T14:06:55;7.13;;;3.43;;
3777;SDS011;1904;50.076;8.660;2023-06-10T14:09:31;3.90;;;3.60;;
3777;SDS011;1904;50.076;8.660;2023-06-10T14:11:56;3.90;;;3.60;;
3777;SDS011;1904;50.076;8.660;2023-06-10T14:14:37;3.67;;;3.37;;
3777;SDS011;1904;50.076;8.660;2023-06-10T14:20:25;3.70;;;3.47;;
3777;SDS011;1904;50.076;8.660;2023-06-10T14:26:19;6.87;;;3.83;;
3777;SDS011;1904;50.076;8.660;2023-06-10T14:34:55;4.00;;;3.70;;
3777;SDS011;1904;50.076;8.660;2023-06-10T14:40:42;5.23;;;4.10;;
3777;SDS011;1904;50.076;8.660;2023-06-10T14:43:08;8.00;;;3.70;;
3777;SDS011;1904;50.076;8.660;2023-06-10T14:48:31;7.30;;;3.17;;
3777;SDS011;1904;50.076;8.660;2023-06-10T14:53:55;4.60;;;3.30;;
3777;SDS011;1904;50.076;8.660;2023-06-10T14:56:37;3.33;;;3.03;;
3777;SDS011;1904;50.076;8.660;2023-06-10T14:59:13;3.00;;;2.80;;
3777;SDS011;1904;50.076;8.660;2023-06-10T15:04:49;3.67;;;3.43;;
3777;SDS011;1904;50.076;8.660;2023-06-10T15:07:25;3.83;;;3.40;;
3777;SDS011;1904;50.076;8.660;2023-06-10T15:12:43;4.90;;;3.60;;
3777;SDS011;1904;50.076;8.660;2023-06-10T15:15:08;7.30;;;3.90;;
3777;SDS011;1904;50.076;8.660;2023-06-10T15:17:34;6.37;;;3.80;;
3777;SDS011;1904;50.076;8.660;2023-06-10T15:23:31;4.27;;;3.97;;
3777;SDS011;1904;50.076;8.660;2023-06-10T15:26:13;7.87;;;4.23;;
3777;SDS011;1904;50.076;8.660;2023-06-10T15:28:38;5.60;;;4.10;;
3777;SDS011;1904;50.076;8.660;2023-06-10T15:31:19;5.07;;;3.77;;
3777;SDS011;1904;50.076;8.660;2023-06-10T15:36:38;4.87;;;4.27;;
3777;SDS011;1904;50.076;8.660;2023-06-10T15:39:13;8.30;;;3.67;;
3777;SDS011;1904;50.076;8.660;2023-06-10T15:41:49;3.33;;;3.03;;
3777;SDS011;1904;50.076;8.660;2023-06-10T15:44:19;10.37;;;3.27;;
3777;SDS011;1904;50.076;8.660;2023-06-10T15:47:01;3.23;;;3.00;;
3777;SDS011;1904;50.076;8.660;2023-06-10T15:49:43;2.83;;;2.63;;
3777;SDS011;1904;50.076;8.660;2023-06-10T15:52:08;3.00;;;2.57;;
3777;SDS011;1904;50.076;8.660;2023-06-10T15:57:43;1.70;;;1.70;;
3777;SDS011;1904;50.076;8.660;2023-06-10T16:03:07;2.40;;;2.10;;
3777;SDS011;1904;50.076;8.660;2023-06-10T16:05:43;4.50;;;2.00;;
3777;SDS011;1904;50.076;8.660;2023-06-10T16:11:31;4.00;;;1.93;;
3777;SDS011;1904;50.076;8.660;2023-06-10T16:14:13;3.33;;;2.03;;
3777;SDS011;1904;50.076;8.660;2023-06-10T16:16:43;3.07;;;2.00;;
3777;SDS011;1904;50.076;8.660;2023-06-10T16:19:19;6.97;;;2.77;;
3777;SDS011;1904;50.076;8.660;2023-06-10T16:21:55;2.40;;;2.10;;
3777;SDS011;1904;50.076;8.660;2023-06-10T16:27:13;2.67;;;2.47;;
3777;SDS011;1904;50.076;8.660;2023-06-10T16:29:43;6.70;;;3.57;;
3777;SDS011;1904;50.076;8.660;2023-06-10T16:32:19;4.30;;;3.00;;
3777;SDS011;1904;50.076;8.660;2023-06-10T16:34:49;4.10;;;3.70;;
3777;SDS011;1904;50.076;8.660;2023-06-10T16:55:19;8.23;;;3.40;;
3777;SDS011;1904;50.076;8.660;2023-06-10T17:04:31;3.67;;;2.40;;
3777;SDS011;1904;50.076;8.660;2023-06-10T17:07:01;12.40;;;2.97;;
3777;SDS011;1904;50.076;8.660;2023-06-10T17:12:55;6.73;;;2.67;;
3777;SDS011;1904;50.076;8.660;2023-06-10T17:21:20;3.57;;;2.83;;
3777;SDS011;1904;50.076;8.660;2023-06-10T17:23:55;3.17;;;2.70;;
3777;SDS011;1904;50.076;8.660;2023-06-10T17:26:25;2.80;;;2.60;;
3777;SDS011;1904;50.076;8.660;2023-06-10T17:28:55;7.50;;;3.23;;
3777;SDS011;1904;50.076;8.660;2023-06-10T17:31:21;3.53;;;3.20;;
3777;SDS011;1904;50.076;8.660;2023-06-10T17:33:49;3.50;;;3.20;;
3777;SDS011;1904;50.076;8.660;2023-06-10T17:36:19;3.90;;;3.43;;
3777;SDS011;1904;50.076;8.660;2023-06-10T17:38:45;5.37;;;3.10;;
3777;SDS011;1904;50.076;8.660;2023-06-10T17:41:11;3.20;;;3.00;;
3777;SDS011;1904;50.076;8.660;2023-06-10T17:43:43;3.33;;;3.07;;
3777;SDS011;1904;50.076;8.660;2023-06-10T17:46:10;3.77;;;3.47;;
3777;SDS011;1904;50.076;8.660;2023-06-10T17:48:36;4.53;;;3.23;;
3777;SDS011;1904;50.076;8.660;2023-06-10T17:51:07;6.23;;;4.13;;
3777;SDS011;1904;50.076;8.660;2023-06-10T17:53:49;4.97;;;4.57;;
3777;SDS011;1904;50.076;8.660;2023-06-10T17:56:31;6.80;;;3.97;;
3777;SDS011;1904;50.076;8.660;2023-06-10T17:59:01;7.40;;;4.63;;
3777;SDS011;1904;50.076;8.660;2023-06-10T18:01:27;7.00;;;4.83;;
3777;SDS011;1904;50.076;8.660;2023-06-10T18:03:52;6.40;;;5.03;;
3777;SDS011;1904;50.076;8.660;2023-06-10T18:06:18;8.40;;;5.63;;
3777;SDS011;1904;50.076;8.660;2023-06-10T18:08:44;14.83;;;5.70;;
3777;SDS011;1904;50.076;8.660;2023-06-10T18:11:11;7.57;;;6.07;;
3777;SDS011;1904;50.076;8.660;2023-06-10T18:13:37;8.80;;;5.97;;
3777;SDS011;1904;50.076;8.660;2023-06-10T18:16:03;15.43;;;5.80;;
3777;SDS011;1904;50.076;8.660;2023-06-10T18:18:32;13.40;;;6.10;;
3777;SDS011;1904;50.076;8.660;2023-06-10T18:21:07;8.10;;;5.80;;
3777;SDS011;1904;50.076;8.660;2023-06-10T18:23:33;6.90;;;6.20;;
3777;SDS011;1904;50.076;8.660;2023-06-10T18:25:59;6.60;;;5.90;;
3777;SDS011;1904;50.076;8.660;2023-06-10T18:28:26;16.30;;;6.37;;
3777;SDS011;1904;50.076;8.660;2023-06-10T18:37:07;7.60;;;6.90;;
3777;SDS011;1904;50.076;8.660;2023-06-10T18:39:49;10.67;;;6.90;;
3777;SDS011;1904;50.076;8.660;2023-06-10T18:45:37;11.17;;;6.73;;
3777;SDS011;1904;50.076;8.660;2023-06-10T18:54:37;11.30;;;6.00;;
3777;SDS011;1904;50.076;8.660;2023-06-10T18:57:03;10.70;;;6.60;;
3777;SDS011;1904;50.076;8.660;2023-06-10T19:06:00;8.43;;;6.37;;
3777;SDS011;1904;50.076;8.660;2023-06-10T19:11:55;10.13;;;7.13;;
3777;SDS011;1904;50.076;8.660;2023-06-10T19:14:21;7.23;;;6.07;;
3777;SDS011;1904;50.076;8.660;2023-06-10T19:16:49;7.03;;;6.30;;
3777;SDS011;1904;50.076;8.660;2023-06-10T19:22:43;9.67;;;7.00;;
3777;SDS011;1904;50.076;8.660;2023-06-10T19:25:08;8.70;;;7.40;;
3777;SDS011;1904;50.076;8.660;2023-06-10T19:27:43;8.07;;;6.33;;
3777;SDS011;1904;50.076;8.660;2023-06-10T19:36:53;13.77;;;6.80;;
3777;SDS011;1904;50.076;8.660;2023-06-10T19:45:31;11.00;;;7.20;;
3777;SDS011;1904;50.076;8.660;2023-06-10T19:51:18;9.60;;;7.13;;
3777;SDS011;1904;50.076;8.660;2023-06-10T19:57:07;10.20;;;7.00;;
3777;SDS011;1904;50.076;8.660;2023-06-10T19:59:43;14.40;;;8.10;;
3777;SDS011;1904;50.076;8.660;2023-06-10T20:05:13;8.43;;;7.50;;
3777;SDS011;1904;50.076;8.660;2023-06-10T20:07:39;10.03;;;7.13;;
3777;SDS011;1904;50.076;8.660;2023-06-10T20:10:05;14.53;;;7.83;;
3777;SDS011;1904;50.076;8.660;2023-06-10T20:12:31;8.00;;;6.73;;
3777;SDS011;1904;50.076;8.660;2023-06-10T20:14:57;9.10;;;7.50;;
3777;SDS011;1904;50.076;8.660;2023-06-10T20:17:31;10.70;;;8.03;;
3777;SDS011;1904;50.076;8.660;2023-06-10T20:19:57;7.70;;;6.90;;
3777;SDS011;1904;50.076;8.660;2023-06-10T20:22:25;9.33;;;7.50;;
3777;SDS011;1904;50.076;8.660;2023-06-10T20:25:07;8.40;;;7.37;;
3777;SDS011;1904;50.076;8.660;2023-06-10T20:27:37;15.13;;;7.60;;
3777;SDS011;1904;50.076;8.660;2023-06-10T20:30:07;12.07;;;7.43;;
3777;SDS011;1904;50.076;8.660;2023-06-10T20:32:33;10.23;;;7.40;;
3777;SDS011;1904;50.076;8.660;2023-06-10T20:35:01;10.60;;;7.97;;
3777;SDS011;1904;50.076;8.660;2023-06-10T20:37:37;9.60;;;7.60;;
3777;SDS011;1904;50.076;8.660;2023-06-10T20:40:19;12.13;;;8.40;;
3777;SDS011;1904;50.076;8.660;2023-06-10T20:42:49;12.40;;;8.00;;
3777;SDS011;1904;50.076;8.660;2023-06-10T20:45:15;14.53;;;8.23;;
3777;SDS011;1904;50.076;8.660;2023-06-10T20:47:43;9.70;;;7.90;;
3777;SDS011;1904;50.076;8.660;2023-06-10T20:50:19;9.70;;;7.40;;
3777;SDS011;1904;50.076;8.660;2023-06-10T20:52:49;17.37;;;8.67;;
3777;SDS011;1904;50.076;8.660;2023-06-10T20:55:15;9.37;;;8.10;;
3777;SDS011;1904;50.076;8.660;2023-06-10T20:57:43;9.47;;;8.30;;
3777;SDS011;1904;50.076;8.660;2023-06-10T21:00:13;11.70;;;8.03;;
3777;SDS011;1904;50.076;8.660;2023-06-10T21:02:43;12.73;;;8.53;;
3777;SDS011;1904;50.076;8.660;2023-06-10T21:05:13;9.50;;;7.77;;
3777;SDS011;1904;50.076;8.660;2023-06-10T21:10:55;12.23;;;8.80;;
3777;SDS011;1904;50.076;8.660;2023-06-10T21:16:14;10.90;;;8.33;;
3777;SDS011;1904;50.076;8.660;2023-06-10T21:18:43;16.50;;;8.10;;
3777;SDS011;1904;50.076;8.660;2023-06-10T21:21:13;8.80;;;7.90;;
3777;SDS011;1904;50.076;8.660;2023-06-10T21:23:43;10.33;;;8.30;;
3777;SDS011;1904;50.076;8.660;2023-06-10T21:26:09;16.10;;;8.90;;
3777;SDS011;1904;50.076;8.660;2023-06-10T21:28:37;11.33;;;8.00;;
3777;SDS011;1904;50.076;8.660;2023-06-10T21:31:03;12.10;;;8.10;;
3777;SDS011;1904;50.076;8.660;2023-06-10T21:33:28;10.90;;;8.20;;
3777;SDS011;1904;50.076;8.660;2023-06-10T21:35:56;12.23;;;8.53;;
3777;SDS011;1904;50.076;8.660;2023-06-10T21:38:22;12.83;;;8.70;;
3777;SDS011;1904;50.076;8.660;2023-06-10T21:40:50;9.90;;;7.90;;
3777;SDS011;1904;50.076;8.660;2023-06-10T21:43:19;10.37;;;8.27;;
3777;SDS011;1904;50.076;8.660;2023-06-10T21:45:55;11.50;;;8.40;;
3777;SDS011;1904;50.076;8.660;2023-06-10T21:48:21;12.30;;;8.27;;
3777;SDS011;1904;50.076;8.660;2023-06-10T21:50:49;13.03;;;8.43;;
3777;SDS011;1904;50.076;8.660;2023-06-10T21:53:15;17.10;;;8.30;;
3777;SDS011;1904;50.076;8.660;2023-06-10T21:55:40;10.60;;;8.13;;
3777;SDS011;1904;50.076;8.660;2023-06-10T21:58:06;9.60;;;8.37;;
3777;SDS011;1904;50.076;8.660;2023-06-10T22:00:32;12.63;;;9.00;;
3777;SDS011;1904;50.076;8.660;2023-06-10T22:03:01;12.63;;;8.63;;
3777;SDS011;1904;50.076;8.660;2023-06-10T22:05:31;10.57;;;8.00;;
3777;SDS011;1904;50.076;8.660;2023-06-10T22:08:13;13.17;;;8.57;;
3777;SDS011;1904;50.076;8.660;2023-06-10T22:10:39;8.40;;;7.50;;
3777;SDS011;1904;50.076;8.660;2023-06-10T22:13:13;10.77;;;8.73;;
3777;SDS011;1904;50.076;8.660;2023-06-10T22:15:43;13.40;;;8.40;;
3777;SDS011;1904;50.076;8.660;2023-06-10T22:18:19;14.90;;;8.60;;
3777;SDS011;1904;50.076;8.660;2023-06-10T22:20:55;10.63;;;8.47;;
3777;SDS011;1904;50.076;8.660;2023-06-10T22:26:25;11.40;;;8.97;;
3777;SDS011;1904;50.076;8.660;2023-06-10T22:28:51;13.60;;;8.70;;
3777;SDS011;1904;50.076;8.660;2023-06-10T22:31:19;11.10;;;8.40;;
3777;SDS011;1904;50.076;8.660;2023-06-10T22:34:01;10.43;;;9.00;;
3777;SDS011;1904;50.076;8.660;2023-06-10T22:36:37;13.37;;;9.10;;
3777;SDS011;1904;50.076;8.660;2023-06-10T22:42:01;14.07;;;8.93;;
3777;SDS011;1904;50.076;8.660;2023-06-10T22:44:29;19.00;;;9.03;;
3777;SDS011;1904;50.076;8.660;2023-06-10T22:47:01;12.40;;;9.43;;
3777;SDS011;1904;50.076;8.660;2023-06-10T22:49:31;11.73;;;8.47;;
3777;SDS011;1904;50.076;8.660;2023-06-10T22:51:57;16.17;;;9.77;;
3777;SDS011;1904;50.076;8.660;2023-06-10T22:54:25;13.03;;;9.37;;
3777;SDS011;1904;50.076;8.660;2023-06-10T22:56:52;12.73;;;9.20;;
3777;SDS011;1904;50.076;8.660;2023-06-10T22:59:17;10.00;;;8.90;;
3777;SDS011;1904;50.076;8.660;2023-06-10T23:01:55;11.37;;;9.00;;
3777;SDS011;1904;50.076;8.660;2023-06-10T23:07:32;15.43;;;10.13;;
3777;SDS011;1904;50.076;8.660;2023-06-10T23:10:13;15.50;;;9.87;;
3777;SDS011;1904;50.076;8.660;2023-06-10T23:15:43;12.30;;;9.60;;
3777;SDS011;1904;50.076;8.660;2023-06-10T23:21:31;12.00;;;10.20;;
3777;SDS011;1904;50.076;8.660;2023-06-10T23:24:07;13.93;;;10.47;;
3777;SDS011;1904;50.076;8.660;2023-06-10T23:26:36;11.90;;;9.73;;
3777;SDS011;1904;50.076;8.660;2023-06-10T23:29:01;12.40;;;9.10;;
3777;SDS011;1904;50.076;8.660;2023-06-10T23:31:27;12.40;;;9.67;;
3777;SDS011;1904;50.076;8.660;2023-06-10T23:33:53;11.17;;;10.00;;
3777;SDS011;1904;50.076;8.660;2023-06-10T23:36:18;10.63;;;9.13;;
3777;SDS011;1904;50.076;8.660;2023-06-10T23:38:45;10.67;;;9.07;;
3777;SDS011;1904;50.076;8.660;2023-06-10T23:41:13;14.60;;;9.23;;
3777;SDS011;1904;50.076;8.660;2023-06-10T23:43:43;14.17;;;10.23;;
3777;SDS011;1904;50.076;8.660;2023-06-10T23:46:09;17.70;;;10.57;;
3777;SDS011;1904;50.076;8.660;2023-06-10T23:48:37;13.23;;;9.53;;
3777;SDS011;1904;50.076;8.660;2023-06-10T23:51:03;10.47;;;9.37;;
3777;SDS011;1904;50.076;8.660;2023-06-10T23:53:30;12.80;;;10.10;;
3777;SDS011;1904;50.076;8.660;2023-06-10T23:55:56;11.30;;;10.07;;
3777;SDS011;1904;50.076;8.660;2023-06-10T23:58:25;12.70;;;9.90;;
